sensor_id;sensor_type;location;lat;lon;timestamp;P1;durP1;ratioP1;P2;durP2;ratioP2
45402;SDS011;47427;51.976;5.326;2023-04-06T00:03:06;29.10;;;26.08;;
45402;SDS011;47427;51.976;5.326;2023-04-06T00:06:28;30.40;;;27.38;;
45402;SDS011;47427;51.976;5.326;2023-04-06T00:09:50;28.73;;;25.92;;
45402;SDS011;47427;51.976;5.326;2023-04-06T00:13:13;29.15;;;26.38;;
45402;SDS011;47427;51.976;5.326;2023-04-06T00:16:35;28.67;;;25.77;;
45402;SDS011;47427;51.976;5.326;2023-04-06T00:19:57;31.83;;;28.52;;
45402;SDS011;47427;51.976;5.326;2023-04-06T00:23:20;30.90;;;27.27;;
45402;SDS011;47427;51.976;5.326;2023-04-06T00:26:43;30.42;;;27.45;;
45402;SDS011;47427;51.976;5.326;2023-04-06T00:30:06;29.30;;;26.60;;
45402;SDS011;47427;51.976;5.326;2023-04-06T00:33:29;30.52;;;26.67;;
45402;SDS011;47427;51.976;5.326;2023-04-06T00:36:51;28.48;;;25.77;;
45402;SDS011;47427;51.976;5.326;2023-04-06T00:40:14;28.30;;;25.60;;
45402;SDS011;47427;51.976;5.326;2023-04-06T00:43:36;28.33;;;25.63;;
45402;SDS011;47427;51.976;5.326;2023-04-06T00:46:59;27.83;;;25.20;;
45402;SDS011;47427;51.976;5.326;2023-04-06T00:50:20;27.85;;;24.83;;
45402;SDS011;47427;51.976;5.326;2023-04-06T00:53:43;28.52;;;25.83;;
45402;SDS011;47427;51.976;5.326;2023-04-06T00:57:07;26.98;;;24.60;;
45402;SDS011;47427;51.976;5.326;2023-04-06T01:00:29;28.13;;;25.35;;
45402;SDS011;47427;51.976;5.326;2023-04-06T01:03:55;27.05;;;24.40;;
45402;SDS011;47427;51.976;5.326;2023-04-06T01:07:18;28.23;;;25.52;;
45402;SDS011;47427;51.976;5.326;2023-04-06T01:10:54;28.90;;;25.90;;
45402;SDS011;47427;51.976;5.326;2023-04-06T01:14:23;27.83;;;24.92;;
45402;SDS011;47427;51.976;5.326;2023-04-06T01:17:51;25.38;;;22.88;;
45402;SDS011;47427;51.976;5.326;2023-04-06T01:21:14;27.50;;;24.90;;
45402;SDS011;47427;51.976;5.326;2023-04-06T01:24:52;27.02;;;24.50;;
45402;SDS011;47427;51.976;5.326;2023-04-06T01:28:27;26.80;;;24.13;;
45402;SDS011;47427;51.976;5.326;2023-04-06T01:31:57;25.67;;;23.25;;
45402;SDS011;47427;51.976;5.326;2023-04-06T01:35:19;25.90;;;23.50;;
45402;SDS011;47427;51.976;5.326;2023-04-06T01:38:52;25.58;;;23.23;;
45402;SDS011;47427;51.976;5.326;2023-04-06T01:42:20;25.48;;;22.98;;
45402;SDS011;47427;51.976;5.326;2023-04-06T01:45:43;24.50;;;22.40;;
45402;SDS011;47427;51.976;5.326;2023-04-06T01:49:11;25.10;;;22.63;;
45402;SDS011;47427;51.976;5.326;2023-04-06T01:52:54;24.35;;;22.15;;
45402;SDS011;47427;51.976;5.326;2023-04-06T01:56:16;24.08;;;22.08;;
45402;SDS011;47427;51.976;5.326;2023-04-06T01:59:48;25.38;;;22.98;;
45402;SDS011;47427;51.976;5.326;2023-04-06T02:03:16;25.08;;;22.27;;
45402;SDS011;47427;51.976;5.326;2023-04-06T02:06:59;24.70;;;22.63;;
45402;SDS011;47427;51.976;5.326;2023-04-06T02:10:23;25.52;;;23.13;;
45402;SDS011;47427;51.976;5.326;2023-04-06T02:13:46;25.83;;;23.25;;
45402;SDS011;47427;51.976;5.326;2023-04-06T02:17:35;25.95;;;23.25;;
45402;SDS011;47427;51.976;5.326;2023-04-06T02:20:59;23.67;;;21.60;;
45402;SDS011;47427;51.976;5.326;2023-04-06T02:24:22;24.63;;;22.25;;
45402;SDS011;47427;51.976;5.326;2023-04-06T02:27:45;25.05;;;22.48;;
45402;SDS011;47427;51.976;5.326;2023-04-06T02:31:07;23.52;;;21.30;;
45402;SDS011;47427;51.976;5.326;2023-04-06T02:34:30;24.02;;;21.70;;
45402;SDS011;47427;51.976;5.326;2023-04-06T02:37:51;24.95;;;22.45;;
45402;SDS011;47427;51.976;5.326;2023-04-06T02:41:14;24.73;;;22.27;;
45402;SDS011;47427;51.976;5.326;2023-04-06T02:44:37;24.10;;;21.90;;
45402;SDS011;47427;51.976;5.326;2023-04-06T02:47:58;24.40;;;22.10;;
45402;SDS011;47427;51.976;5.326;2023-04-06T02:51:24;23.73;;;21.53;;
45402;SDS011;47427;51.976;5.326;2023-04-06T02:54:51;24.92;;;22.48;;
45402;SDS011;47427;51.976;5.326;2023-04-06T02:58:19;25.48;;;23.00;;
45402;SDS011;47427;51.976;5.326;2023-04-06T03:01:48;25.05;;;22.60;;
45402;SDS011;47427;51.976;5.326;2023-04-06T03:05:11;27.38;;;24.65;;
45402;SDS011;47427;51.976;5.326;2023-04-06T03:12:00;25.80;;;23.30;;
45402;SDS011;47427;51.976;5.326;2023-04-06T03:15:22;27.33;;;24.42;;
45402;SDS011;47427;51.976;5.326;2023-04-06T03:18:51;26.42;;;23.77;;
45402;SDS011;47427;51.976;5.326;2023-04-06T03:22:32;27.73;;;24.83;;
45402;SDS011;47427;51.976;5.326;2023-04-06T03:25:56;27.45;;;24.75;;
45402;SDS011;47427;51.976;5.326;2023-04-06T03:29:37;27.60;;;24.02;;
45402;SDS011;47427;51.976;5.326;2023-04-06T03:33:03;27.63;;;24.92;;
45402;SDS011;47427;51.976;5.326;2023-04-06T03:36:30;27.17;;;24.55;;
45402;SDS011;47427;51.976;5.326;2023-04-06T03:39:54;28.23;;;25.48;;
45402;SDS011;47427;51.976;5.326;2023-04-06T03:43:18;27.73;;;25.02;;
45402;SDS011;47427;51.976;5.326;2023-04-06T03:46:40;28.70;;;25.67;;
45402;SDS011;47427;51.976;5.326;2023-04-06T03:50:05;28.00;;;25.25;;
45402;SDS011;47427;51.976;5.326;2023-04-06T03:53:29;31.15;;;26.05;;
45402;SDS011;47427;51.976;5.326;2023-04-06T03:56:52;29.20;;;26.25;;
45402;SDS011;47427;51.976;5.326;2023-04-06T04:00:15;28.38;;;25.73;;
45402;SDS011;47427;51.976;5.326;2023-04-06T04:03:36;30.30;;;27.10;;
45402;SDS011;47427;51.976;5.326;2023-04-06T04:06:59;31.05;;;27.90;;
45402;SDS011;47427;51.976;5.326;2023-04-06T04:10:22;31.00;;;27.65;;
45402;SDS011;47427;51.976;5.326;2023-04-06T04:13:44;28.85;;;25.95;;
45402;SDS011;47427;51.976;5.326;2023-04-06T04:17:07;32.53;;;27.98;;
45402;SDS011;47427;51.976;5.326;2023-04-06T04:20:29;33.40;;;29.88;;
45402;SDS011;47427;51.976;5.326;2023-04-06T04:23:52;32.58;;;28.60;;
45402;SDS011;47427;51.976;5.326;2023-04-06T04:27:14;32.42;;;29.00;;
45402;SDS011;47427;51.976;5.326;2023-04-06T04:30:36;29.67;;;26.63;;
45402;SDS011;47427;51.976;5.326;2023-04-06T04:34:03;32.03;;;28.73;;
45402;SDS011;47427;51.976;5.326;2023-04-06T04:37:29;31.80;;;28.45;;
45402;SDS011;47427;51.976;5.326;2023-04-06T04:41:10;33.17;;;29.73;;
45402;SDS011;47427;51.976;5.326;2023-04-06T04:44:34;34.88;;;28.63;;
45402;SDS011;47427;51.976;5.326;2023-04-06T04:47:57;33.95;;;29.27;;
45402;SDS011;47427;51.976;5.326;2023-04-06T04:51:25;34.47;;;30.85;;
45402;SDS011;47427;51.976;5.326;2023-04-06T04:55:11;38.10;;;31.15;;
45402;SDS011;47427;51.976;5.326;2023-04-06T04:58:33;34.95;;;29.73;;
45402;SDS011;47427;51.976;5.326;2023-04-06T05:01:57;33.47;;;29.88;;
45402;SDS011;47427;51.976;5.326;2023-04-06T05:05:28;33.70;;;30.10;;
45402;SDS011;47427;51.976;5.326;2023-04-06T05:08:52;36.80;;;31.77;;
45402;SDS011;47427;51.976;5.326;2023-04-06T05:12:16;35.30;;;30.75;;
45402;SDS011;47427;51.976;5.326;2023-04-06T05:15:50;35.95;;;30.58;;
45402;SDS011;47427;51.976;5.326;2023-04-06T05:19:26;35.57;;;31.70;;
45402;SDS011;47427;51.976;5.326;2023-04-06T05:22:47;37.75;;;31.73;;
45402;SDS011;47427;51.976;5.326;2023-04-06T05:26:10;38.47;;;33.15;;
45402;SDS011;47427;51.976;5.326;2023-04-06T05:29:33;37.90;;;33.45;;
45402;SDS011;47427;51.976;5.326;2023-04-06T05:32:56;37.20;;;33.17;;
45402;SDS011;47427;51.976;5.326;2023-04-06T05:36:27;35.35;;;31.38;;
45402;SDS011;47427;51.976;5.326;2023-04-06T05:43:31;37.00;;;30.27;;
45402;SDS011;47427;51.976;5.326;2023-04-06T05:46:54;36.92;;;30.85;;
45402;SDS011;47427;51.976;5.326;2023-04-06T05:50:16;37.05;;;31.35;;
45402;SDS011;47427;51.976;5.326;2023-04-06T05:57:22;41.13;;;32.10;;
45402;SDS011;47427;51.976;5.326;2023-04-06T06:00:44;39.15;;;32.38;;
45402;SDS011;47427;51.976;5.326;2023-04-06T06:04:10;34.95;;;31.30;;
45402;SDS011;47427;51.976;5.326;2023-04-06T06:07:34;41.90;;;33.60;;
45402;SDS011;47427;51.976;5.326;2023-04-06T06:10:57;39.17;;;33.67;;
45402;SDS011;47427;51.976;5.326;2023-04-06T06:14:19;38.33;;;32.80;;
45402;SDS011;47427;51.976;5.326;2023-04-06T06:17:42;36.25;;;32.38;;
45402;SDS011;47427;51.976;5.326;2023-04-06T06:21:05;41.25;;;33.58;;
45402;SDS011;47427;51.976;5.326;2023-04-06T06:24:28;35.30;;;31.60;;
45402;SDS011;47427;51.976;5.326;2023-04-06T06:27:51;44.97;;;34.25;;
45402;SDS011;47427;51.976;5.326;2023-04-06T06:31:14;38.10;;;33.22;;
45402;SDS011;47427;51.976;5.326;2023-04-06T06:34:38;37.65;;;33.33;;
45402;SDS011;47427;51.976;5.326;2023-04-06T06:38:02;37.40;;;33.38;;
45402;SDS011;47427;51.976;5.326;2023-04-06T06:41:26;41.03;;;33.22;;
45402;SDS011;47427;51.976;5.326;2023-04-06T06:44:49;36.63;;;32.65;;
45402;SDS011;47427;51.976;5.326;2023-04-06T06:48:13;40.03;;;32.72;;
45402;SDS011;47427;51.976;5.326;2023-04-06T06:51:35;38.05;;;32.40;;
45402;SDS011;47427;51.976;5.326;2023-04-06T06:54:58;38.00;;;33.08;;
45402;SDS011;47427;51.976;5.326;2023-04-06T06:58:20;37.85;;;33.78;;
45402;SDS011;47427;51.976;5.326;2023-04-06T07:01:43;37.33;;;33.35;;
45402;SDS011;47427;51.976;5.326;2023-04-06T07:05:05;36.88;;;32.90;;
45402;SDS011;47427;51.976;5.326;2023-04-06T07:08:27;39.95;;;33.88;;
45402;SDS011;47427;51.976;5.326;2023-04-06T07:11:50;38.95;;;33.97;;
45402;SDS011;47427;51.976;5.326;2023-04-06T07:15:11;39.25;;;34.90;;
45402;SDS011;47427;51.976;5.326;2023-04-06T07:18:34;37.35;;;33.28;;
45402;SDS011;47427;51.976;5.326;2023-04-06T07:21:57;38.97;;;34.38;;
45402;SDS011;47427;51.976;5.326;2023-04-06T07:25:20;39.45;;;34.95;;
45402;SDS011;47427;51.976;5.326;2023-04-06T07:28:43;38.95;;;34.83;;
45402;SDS011;47427;51.976;5.326;2023-04-06T07:32:07;39.00;;;34.80;;
45402;SDS011;47427;51.976;5.326;2023-04-06T07:35:30;38.28;;;33.97;;
45402;SDS011;47427;51.976;5.326;2023-04-06T07:38:52;42.60;;;34.10;;
45402;SDS011;47427;51.976;5.326;2023-04-06T07:42:17;38.42;;;33.55;;
45402;SDS011;47427;51.976;5.326;2023-04-06T07:45:40;38.75;;;32.80;;
45402;SDS011;47427;51.976;5.326;2023-04-06T07:49:03;38.72;;;34.10;;
45402;SDS011;47427;51.976;5.326;2023-04-06T07:52:28;37.55;;;33.45;;
45402;SDS011;47427;51.976;5.326;2023-04-06T07:55:51;44.22;;;33.30;;
45402;SDS011;47427;51.976;5.326;2023-04-06T07:59:14;36.05;;;32.33;;
45402;SDS011;47427;51.976;5.326;2023-04-06T08:02:35;37.67;;;32.58;;
45402;SDS011;47427;51.976;5.326;2023-04-06T08:05:58;36.85;;;33.05;;
45402;SDS011;47427;51.976;5.326;2023-04-06T08:09:20;37.22;;;33.25;;
45402;SDS011;47427;51.976;5.326;2023-04-06T08:12:43;37.13;;;33.22;;
45402;SDS011;47427;51.976;5.326;2023-04-06T08:16:06;37.88;;;33.80;;
45402;SDS011;47427;51.976;5.326;2023-04-06T08:19:27;42.55;;;34.67;;
45402;SDS011;47427;51.976;5.326;2023-04-06T08:22:50;40.65;;;35.53;;
45402;SDS011;47427;51.976;5.326;2023-04-06T08:26:13;41.85;;;33.90;;
45402;SDS011;47427;51.976;5.326;2023-04-06T08:29:34;40.45;;;34.30;;
45402;SDS011;47427;51.976;5.326;2023-04-06T08:32:57;45.55;;;33.35;;
45402;SDS011;47427;51.976;5.326;2023-04-06T08:36:20;39.47;;;31.75;;
45402;SDS011;47427;51.976;5.326;2023-04-06T08:39:44;37.80;;;32.65;;
45402;SDS011;47427;51.976;5.326;2023-04-06T08:43:08;40.55;;;33.70;;
45402;SDS011;47427;51.976;5.326;2023-04-06T08:46:33;37.88;;;32.58;;
45402;SDS011;47427;51.976;5.326;2023-04-06T08:49:56;39.38;;;33.08;;
45402;SDS011;47427;51.976;5.326;2023-04-06T08:53:21;42.55;;;34.08;;
45402;SDS011;47427;51.976;5.326;2023-04-06T08:56:42;41.22;;;34.70;;
45402;SDS011;47427;51.976;5.326;2023-04-06T09:00:06;39.00;;;33.17;;
45402;SDS011;47427;51.976;5.326;2023-04-06T09:03:30;37.15;;;31.67;;
45402;SDS011;47427;51.976;5.326;2023-04-06T09:10:19;36.03;;;32.28;;
45402;SDS011;47427;51.976;5.326;2023-04-06T09:13:48;39.78;;;35.63;;
45402;SDS011;47427;51.976;5.326;2023-04-06T09:17:22;38.20;;;34.15;;
45402;SDS011;47427;51.976;5.326;2023-04-06T09:20:56;37.33;;;33.35;;
45402;SDS011;47427;51.976;5.326;2023-04-06T09:24:38;41.90;;;36.22;;
45402;SDS011;47427;51.976;5.326;2023-04-06T09:28:11;45.15;;;35.20;;
45402;SDS011;47427;51.976;5.326;2023-04-06T09:31:33;50.78;;;38.35;;
45402;SDS011;47427;51.976;5.326;2023-04-06T09:35:06;45.28;;;36.95;;
45402;SDS011;47427;51.976;5.326;2023-04-06T09:38:29;47.65;;;37.05;;
45402;SDS011;47427;51.976;5.326;2023-04-06T09:41:52;39.47;;;34.20;;
45402;SDS011;47427;51.976;5.326;2023-04-06T09:45:16;43.03;;;36.15;;
45402;SDS011;47427;51.976;5.326;2023-04-06T09:48:37;45.72;;;35.58;;
45402;SDS011;47427;51.976;5.326;2023-04-06T09:51:59;49.35;;;35.35;;
45402;SDS011;47427;51.976;5.326;2023-04-06T09:55:30;43.28;;;35.00;;
45402;SDS011;47427;51.976;5.326;2023-04-06T09:59:06;45.97;;;35.85;;
45402;SDS011;47427;51.976;5.326;2023-04-06T10:06:20;45.63;;;34.85;;
45402;SDS011;47427;51.976;5.326;2023-04-06T10:09:46;32.75;;;29.52;;
45402;SDS011;47427;51.976;5.326;2023-04-06T10:13:10;29.77;;;27.17;;
45402;SDS011;47427;51.976;5.326;2023-04-06T10:16:34;28.83;;;26.07;;
45402;SDS011;47427;51.976;5.326;2023-04-06T10:27:08;30.85;;;28.05;;
45402;SDS011;47427;51.976;5.326;2023-04-06T10:30:32;31.85;;;28.98;;
45402;SDS011;47427;51.976;5.326;2023-04-06T10:33:56;31.38;;;28.77;;
45402;SDS011;47427;51.976;5.326;2023-04-06T10:37:23;30.90;;;28.50;;
45402;SDS011;47427;51.976;5.326;2023-04-06T10:40:45;32.58;;;29.85;;
45402;SDS011;47427;51.976;5.326;2023-04-06T10:44:20;31.52;;;28.90;;
45402;SDS011;47427;51.976;5.326;2023-04-06T10:47:43;33.38;;;30.88;;
45402;SDS011;47427;51.976;5.326;2023-04-06T10:51:12;31.63;;;29.17;;
45402;SDS011;47427;51.976;5.326;2023-04-06T10:54:40;30.85;;;28.55;;
45402;SDS011;47427;51.976;5.326;2023-04-06T10:58:07;33.13;;;30.52;;
45402;SDS011;47427;51.976;5.326;2023-04-06T11:01:28;36.30;;;33.45;;
45402;SDS011;47427;51.976;5.326;2023-04-06T11:04:55;36.65;;;33.90;;
45402;SDS011;47427;51.976;5.326;2023-04-06T11:08:29;33.55;;;31.05;;
45402;SDS011;47427;51.976;5.326;2023-04-06T11:11:54;32.95;;;30.42;;
45402;SDS011;47427;51.976;5.326;2023-04-06T11:15:17;34.00;;;30.95;;
45402;SDS011;47427;51.976;5.326;2023-04-06T11:18:47;33.45;;;30.85;;
45402;SDS011;47427;51.976;5.326;2023-04-06T11:22:12;30.88;;;28.65;;
45402;SDS011;47427;51.976;5.326;2023-04-06T11:25:35;31.40;;;29.10;;
45402;SDS011;47427;51.976;5.326;2023-04-06T11:28:58;32.10;;;29.27;;
45402;SDS011;47427;51.976;5.326;2023-04-06T11:32:20;31.08;;;28.75;;
45402;SDS011;47427;51.976;5.326;2023-04-06T11:35:45;32.58;;;30.08;;
45402;SDS011;47427;51.976;5.326;2023-04-06T11:39:08;33.30;;;30.63;;
45402;SDS011;47427;51.976;5.326;2023-04-06T11:42:31;33.25;;;30.52;;
45402;SDS011;47427;51.976;5.326;2023-04-06T11:46:01;32.95;;;30.02;;
45402;SDS011;47427;51.976;5.326;2023-04-06T11:49:28;31.98;;;29.33;;
45402;SDS011;47427;51.976;5.326;2023-04-06T11:53:12;31.83;;;29.23;;
45402;SDS011;47427;51.976;5.326;2023-04-06T11:56:34;34.05;;;31.35;;
45402;SDS011;47427;51.976;5.326;2023-04-06T11:59:56;33.40;;;30.35;;
45402;SDS011;47427;51.976;5.326;2023-04-06T12:03:19;33.45;;;30.45;;
45402;SDS011;47427;51.976;5.326;2023-04-06T12:06:40;31.35;;;28.33;;
45402;SDS011;47427;51.976;5.326;2023-04-06T12:10:03;33.35;;;30.63;;
45402;SDS011;47427;51.976;5.326;2023-04-06T12:13:45;31.30;;;28.45;;
45402;SDS011;47427;51.976;5.326;2023-04-06T12:17:08;31.30;;;28.83;;
45402;SDS011;47427;51.976;5.326;2023-04-06T12:20:31;30.77;;;28.08;;
45402;SDS011;47427;51.976;5.326;2023-04-06T12:23:52;30.77;;;27.83;;
45402;SDS011;47427;51.976;5.326;2023-04-06T12:27:15;30.98;;;28.15;;
45402;SDS011;47427;51.976;5.326;2023-04-06T12:30:37;29.95;;;27.35;;
45402;SDS011;47427;51.976;5.326;2023-04-06T12:34:00;32.38;;;29.27;;
45402;SDS011;47427;51.976;5.326;2023-04-06T12:37:24;32.35;;;29.55;;
45402;SDS011;47427;51.976;5.326;2023-04-06T12:40:46;32.00;;;29.10;;
45402;SDS011;47427;51.976;5.326;2023-04-06T12:44:08;32.03;;;29.27;;
45402;SDS011;47427;51.976;5.326;2023-04-06T12:47:31;32.45;;;29.42;;
45402;SDS011;47427;51.976;5.326;2023-04-06T12:50:59;33.95;;;31.05;;
45402;SDS011;47427;51.976;5.326;2023-04-06T12:54:24;34.28;;;31.17;;
45402;SDS011;47427;51.976;5.326;2023-04-06T12:57:48;34.45;;;31.45;;
45402;SDS011;47427;51.976;5.326;2023-04-06T13:01:10;35.95;;;32.75;;
45402;SDS011;47427;51.976;5.326;2023-04-06T13:04:34;34.85;;;31.95;;
45402;SDS011;47427;51.976;5.326;2023-04-06T13:07:57;36.50;;;33.35;;
45402;SDS011;47427;51.976;5.326;2023-04-06T13:11:20;34.88;;;31.98;;
45402;SDS011;47427;51.976;5.326;2023-04-06T13:14:45;37.53;;;34.25;;
45402;SDS011;47427;51.976;5.326;2023-04-06T13:18:11;39.15;;;35.75;;
45402;SDS011;47427;51.976;5.326;2023-04-06T13:21:34;41.33;;;37.40;;
45402;SDS011;47427;51.976;5.326;2023-04-06T13:24:56;39.40;;;35.83;;
45402;SDS011;47427;51.976;5.326;2023-04-06T13:28:18;37.83;;;34.45;;
45402;SDS011;47427;51.976;5.326;2023-04-06T13:31:40;39.95;;;36.20;;
45402;SDS011;47427;51.976;5.326;2023-04-06T13:35:03;39.10;;;35.40;;
45402;SDS011;47427;51.976;5.326;2023-04-06T13:38:28;37.38;;;34.05;;
45402;SDS011;47427;51.976;5.326;2023-04-06T13:41:53;38.40;;;34.78;;
45402;SDS011;47427;51.976;5.326;2023-04-06T13:45:16;38.90;;;35.27;;
45402;SDS011;47427;51.976;5.326;2023-04-06T13:48:39;38.45;;;34.95;;
45402;SDS011;47427;51.976;5.326;2023-04-06T13:52:02;43.55;;;39.40;;
45402;SDS011;47427;51.976;5.326;2023-04-06T13:55:24;39.63;;;36.00;;
45402;SDS011;47427;51.976;5.326;2023-04-06T13:58:47;42.30;;;38.17;;
45402;SDS011;47427;51.976;5.326;2023-04-06T14:05:30;42.40;;;38.10;;
45402;SDS011;47427;51.976;5.326;2023-04-06T14:09:20;42.30;;;38.35;;
45402;SDS011;47427;51.976;5.326;2023-04-06T14:12:42;38.97;;;35.45;;
45402;SDS011;47427;51.976;5.326;2023-04-06T14:16:05;42.70;;;38.47;;
45402;SDS011;47427;51.976;5.326;2023-04-06T14:19:47;41.03;;;37.22;;
45402;SDS011;47427;51.976;5.326;2023-04-06T14:23:10;41.67;;;37.40;;
45402;SDS011;47427;51.976;5.326;2023-04-06T14:26:33;42.53;;;38.00;;
45402;SDS011;47427;51.976;5.326;2023-04-06T14:30:00;39.55;;;35.60;;
45402;SDS011;47427;51.976;5.326;2023-04-06T14:33:23;40.30;;;36.35;;
45402;SDS011;47427;51.976;5.326;2023-04-06T14:36:45;41.83;;;37.70;;
45402;SDS011;47427;51.976;5.326;2023-04-06T14:40:07;39.08;;;35.42;;
45402;SDS011;47427;51.976;5.326;2023-04-06T14:43:30;40.35;;;36.40;;
45402;SDS011;47427;51.976;5.326;2023-04-06T14:46:53;42.83;;;38.63;;
45402;SDS011;47427;51.976;5.326;2023-04-06T14:50:15;42.75;;;38.22;;
45402;SDS011;47427;51.976;5.326;2023-04-06T14:53:37;43.20;;;39.03;;
45402;SDS011;47427;51.976;5.326;2023-04-06T14:57:00;45.38;;;40.13;;
45402;SDS011;47427;51.976;5.326;2023-04-06T15:00:22;44.05;;;39.25;;
45402;SDS011;47427;51.976;5.326;2023-04-06T15:03:45;41.60;;;37.13;;
45402;SDS011;47427;51.976;5.326;2023-04-06T15:07:07;41.88;;;37.63;;
45402;SDS011;47427;51.976;5.326;2023-04-06T15:10:32;40.92;;;36.78;;
45402;SDS011;47427;51.976;5.326;2023-04-06T15:13:55;39.95;;;35.90;;
45402;SDS011;47427;51.976;5.326;2023-04-06T15:17:16;40.72;;;36.58;;
45402;SDS011;47427;51.976;5.326;2023-04-06T15:20:39;40.97;;;36.90;;
45402;SDS011;47427;51.976;5.326;2023-04-06T15:24:02;44.95;;;40.35;;
45402;SDS011;47427;51.976;5.326;2023-04-06T15:27:26;41.78;;;37.53;;
45402;SDS011;47427;51.976;5.326;2023-04-06T15:30:49;42.55;;;38.15;;
45402;SDS011;47427;51.976;5.326;2023-04-06T15:34:11;42.22;;;38.08;;
45402;SDS011;47427;51.976;5.326;2023-04-06T15:37:33;42.47;;;38.53;;
45402;SDS011;47427;51.976;5.326;2023-04-06T15:40:56;41.78;;;37.70;;
45402;SDS011;47427;51.976;5.326;2023-04-06T15:44:17;40.95;;;37.30;;
45402;SDS011;47427;51.976;5.326;2023-04-06T15:47:41;40.92;;;37.05;;
45402;SDS011;47427;51.976;5.326;2023-04-06T15:51:05;42.03;;;37.78;;
45402;SDS011;47427;51.976;5.326;2023-04-06T15:54:26;42.90;;;38.60;;
45402;SDS011;47427;51.976;5.326;2023-04-06T15:57:49;45.33;;;40.70;;
45402;SDS011;47427;51.976;5.326;2023-04-06T16:01:17;42.03;;;37.83;;
45402;SDS011;47427;51.976;5.326;2023-04-06T16:04:40;43.58;;;38.95;;
45402;SDS011;47427;51.976;5.326;2023-04-06T16:08:24;41.30;;;37.10;;
45402;SDS011;47427;51.976;5.326;2023-04-06T16:11:47;41.92;;;37.72;;
45402;SDS011;47427;51.976;5.326;2023-04-06T16:15:10;41.85;;;37.75;;
45402;SDS011;47427;51.976;5.326;2023-04-06T16:18:31;37.90;;;34.42;;
45402;SDS011;47427;51.976;5.326;2023-04-06T16:21:54;42.35;;;38.13;;
45402;SDS011;47427;51.976;5.326;2023-04-06T16:25:18;46.20;;;40.78;;
45402;SDS011;47427;51.976;5.326;2023-04-06T16:28:40;43.35;;;39.17;;
45402;SDS011;47427;51.976;5.326;2023-04-06T16:32:03;41.85;;;37.90;;
45402;SDS011;47427;51.976;5.326;2023-04-06T16:35:26;43.03;;;38.63;;
45402;SDS011;47427;51.976;5.326;2023-04-06T16:38:49;40.63;;;36.83;;
45402;SDS011;47427;51.976;5.326;2023-04-06T16:42:12;43.15;;;39.03;;
45402;SDS011;47427;51.976;5.326;2023-04-06T16:45:36;44.70;;;40.08;;
45402;SDS011;47427;51.976;5.326;2023-04-06T16:48:59;43.97;;;38.90;;
45402;SDS011;47427;51.976;5.326;2023-04-06T16:52:22;42.30;;;38.10;;
45402;SDS011;47427;51.976;5.326;2023-04-06T16:55:44;40.78;;;36.65;;
45402;SDS011;47427;51.976;5.326;2023-04-06T16:59:07;43.50;;;39.00;;
45402;SDS011;47427;51.976;5.326;2023-04-06T17:02:30;40.60;;;36.70;;
45402;SDS011;47427;51.976;5.326;2023-04-06T17:05:55;36.07;;;32.77;;
45402;SDS011;47427;51.976;5.326;2023-04-06T17:09:18;40.10;;;35.97;;
45402;SDS011;47427;51.976;5.326;2023-04-06T17:12:39;38.90;;;35.05;;
45402;SDS011;47427;51.976;5.326;2023-04-06T17:16:02;38.58;;;34.63;;
45402;SDS011;47427;51.976;5.326;2023-04-06T17:19:25;39.17;;;35.55;;
45402;SDS011;47427;51.976;5.326;2023-04-06T17:22:46;39.38;;;35.67;;
45402;SDS011;47427;51.976;5.326;2023-04-06T17:26:10;38.58;;;34.80;;
45402;SDS011;47427;51.976;5.326;2023-04-06T17:29:34;38.95;;;35.25;;
45402;SDS011;47427;51.976;5.326;2023-04-06T17:32:57;36.83;;;33.38;;
45402;SDS011;47427;51.976;5.326;2023-04-06T17:36:20;40.67;;;36.70;;
45402;SDS011;47427;51.976;5.326;2023-04-06T17:39:42;38.55;;;34.85;;
45402;SDS011;47427;51.976;5.326;2023-04-06T17:43:23;37.65;;;33.80;;
45402;SDS011;47427;51.976;5.326;2023-04-06T17:46:45;38.05;;;34.35;;
45402;SDS011;47427;51.976;5.326;2023-04-06T17:50:06;40.78;;;36.83;;
45402;SDS011;47427;51.976;5.326;2023-04-06T17:53:29;35.83;;;32.58;;
45402;SDS011;47427;51.976;5.326;2023-04-06T17:56:53;37.58;;;33.80;;
45402;SDS011;47427;51.976;5.326;2023-04-06T18:00:16;34.97;;;32.05;;
45402;SDS011;47427;51.976;5.326;2023-04-06T18:03:40;38.60;;;35.05;;
45402;SDS011;47427;51.976;5.326;2023-04-06T18:07:02;38.28;;;34.72;;
45402;SDS011;47427;51.976;5.326;2023-04-06T18:10:26;39.13;;;35.40;;
45402;SDS011;47427;51.976;5.326;2023-04-06T18:13:48;39.97;;;36.00;;
45402;SDS011;47427;51.976;5.326;2023-04-06T18:17:10;37.97;;;34.38;;
45402;SDS011;47427;51.976;5.326;2023-04-06T18:20:38;39.90;;;36.20;;
45402;SDS011;47427;51.976;5.326;2023-04-06T18:24:01;43.70;;;39.15;;
45402;SDS011;47427;51.976;5.326;2023-04-06T18:27:24;41.17;;;37.15;;
45402;SDS011;47427;51.976;5.326;2023-04-06T18:30:47;43.75;;;39.38;;
45402;SDS011;47427;51.976;5.326;2023-04-06T18:34:08;43.28;;;38.78;;
45402;SDS011;47427;51.976;5.326;2023-04-06T18:37:31;47.65;;;42.70;;
45402;SDS011;47427;51.976;5.326;2023-04-06T18:40:54;51.72;;;44.88;;
45402;SDS011;47427;51.976;5.326;2023-04-06T18:44:16;50.50;;;43.90;;
45402;SDS011;47427;51.976;5.326;2023-04-06T18:47:38;51.50;;;46.13;;
45402;SDS011;47427;51.976;5.326;2023-04-06T18:51:01;49.97;;;44.80;;
45402;SDS011;47427;51.976;5.326;2023-04-06T18:54:23;66.57;;;49.42;;
45402;SDS011;47427;51.976;5.326;2023-04-06T18:57:46;49.17;;;43.90;;
45402;SDS011;47427;51.976;5.326;2023-04-06T19:01:08;55.10;;;48.13;;
45402;SDS011;47427;51.976;5.326;2023-04-06T19:04:30;51.90;;;46.33;;
45402;SDS011;47427;51.976;5.326;2023-04-06T19:07:53;54.90;;;47.20;;
45402;SDS011;47427;51.976;5.326;2023-04-06T19:11:16;52.05;;;46.42;;
45402;SDS011;47427;51.976;5.326;2023-04-06T19:14:38;50.30;;;44.95;;
45402;SDS011;47427;51.976;5.326;2023-04-06T19:18:01;49.55;;;44.40;;
45402;SDS011;47427;51.976;5.326;2023-04-06T19:21:24;57.38;;;49.65;;
45402;SDS011;47427;51.976;5.326;2023-04-06T19:24:47;57.22;;;49.13;;
45402;SDS011;47427;51.976;5.326;2023-04-06T19:28:10;50.60;;;45.50;;
45402;SDS011;47427;51.976;5.326;2023-04-06T19:31:34;47.63;;;42.95;;
45402;SDS011;47427;51.976;5.326;2023-04-06T19:34:57;53.35;;;47.28;;
45402;SDS011;47427;51.976;5.326;2023-04-06T19:38:19;48.67;;;44.05;;
45402;SDS011;47427;51.976;5.326;2023-04-06T19:41:45;49.45;;;44.28;;
45402;SDS011;47427;51.976;5.326;2023-04-06T19:45:11;60.13;;;48.17;;
45402;SDS011;47427;51.976;5.326;2023-04-06T19:48:32;52.67;;;45.10;;
45402;SDS011;47427;51.976;5.326;2023-04-06T19:51:55;48.65;;;43.70;;
45402;SDS011;47427;51.976;5.326;2023-04-06T19:55:18;52.55;;;47.08;;
45402;SDS011;47427;51.976;5.326;2023-04-06T19:58:41;51.10;;;45.65;;
45402;SDS011;47427;51.976;5.326;2023-04-06T20:02:04;53.97;;;48.40;;
45402;SDS011;47427;51.976;5.326;2023-04-06T20:05:27;52.63;;;46.95;;
45402;SDS011;47427;51.976;5.326;2023-04-06T20:08:50;60.00;;;51.75;;
45402;SDS011;47427;51.976;5.326;2023-04-06T20:12:12;54.67;;;48.95;;
45402;SDS011;47427;51.976;5.326;2023-04-06T20:15:34;56.38;;;50.22;;
45402;SDS011;47427;51.976;5.326;2023-04-06T20:18:57;53.20;;;47.63;;
45402;SDS011;47427;51.976;5.326;2023-04-06T20:22:19;55.60;;;49.45;;
45402;SDS011;47427;51.976;5.326;2023-04-06T20:25:41;53.53;;;48.03;;